Time,TemperatureF,DewpointF,PressureIn,WindDirection,WindDirectionDegrees,WindSpeedMPH,WindSpeedGustMPH,Humidity,HourlyPrecipIn,Conditions,Clouds,dailyrainin,SoftwareType,DateUTC
2013-04-16 00:00:00,71.0,68.6,30.07,South,178,4.0,7.0,92,0.00,,,0.00,WeatherTracker,2013-04-16 05:00:00,
2013-04-16 00:05:00,70.8,68.4,30.07,SSW,199,2.0,7.0,92,0.00,,,0.00,WeatherTracker,2013-04-16 05:05:00,
2013-04-16 00:15:00,70.5,68.1,30.07,SSE,150,1.0,6.0,92,0.00,,,0.00,WeatherTracker,2013-04-16 05:15:00,
2013-04-16 00:25:00,70.4,68.0,30.07,SSE,150,1.0,4.0,92,0.00,,,0.00,WeatherTracker,2013-04-16 05:25:00,
2013-04-16 00:30:00,70.4,68.0,30.07,SSE,150,0.0,4.0,92,0.00,,,0.00,WeatherTracker,2013-04-16 05:30:00,
2013-04-16 00:40:00,70.2,67.8,30.07,South,178,4.0,5.0,92,0.00,,,0.00,WeatherTracker,2013-04-16 05:40:00,
2013-04-16 00:45:00,70.1,67.7,30.07,SE,146,2.0,5.0,92,0.00,,,0.00,WeatherTracker,2013-04-16 05:45:00,
2013-04-16 00:55:00,69.9,67.5,30.07,SE,146,0.0,5.0,92,0.00,,,0.00,WeatherTracker,2013-04-16 05:55:00,
2013-04-16 01:00:00,69.8,67.4,30.07,SE,146,0.0,2.0,92,0.00,,,0.00,WeatherTracker,2013-04-16 06:00:00,
2013-04-16 01:05:00,69.7,66.9,30.07,SSE,158,0.0,5.0,91,0.00,,,0.00,WeatherTracker,2013-04-16 06:05:00,
2013-04-16 01:15:00,69.6,66.9,30.07,SSE,152,0.0,2.0,91,0.00,,,0.00,WeatherTracker,2013-04-16 06:15:00,
2013-04-16 01:20:00,69.6,66.9,30.07,SSE,152,0.0,1.0,91,0.00,,,0.00,WeatherTracker,2013-04-16 06:20:00,
2013-04-16 01:25:00,69.6,66.9,30.07,SSE,152,0.0,1.0,91,0.00,,,0.00,WeatherTracker,2013-04-16 06:25:00,
2013-04-16 01:35:00,69.5,66.8,30.07,SSE,152,0.0,0.0,91,0.00,,,0.00,WeatherTracker,2013-04-16 06:35:00,
2013-04-16 01:40:00,69.5,66.8,30.07,SSE,152,0.0,0.0,91,0.00,,,0.00,WeatherTracker,2013-04-16 06:40:00,
2013-04-16 01:50:00,69.3,66.6,30.07,SSE,152,0.0,0.0,91,0.00,,,0.00,WeatherTracker,2013-04-16 06:50:00,
2013-04-16 01:55:00,69.2,66.5,30.06,SSE,152,0.0,0.0,91,0.00,,,0.00,WeatherTracker,2013-04-16 06:55:00,
2013-04-16 02:05:00,69.1,66.4,30.06,SSE,152,0.0,0.0,91,0.00,,,0.00,WeatherTracker,2013-04-16 07:05:00,
2013-04-16 02:10:00,69.0,66.3,30.06,SSE,152,0.0,0.0,91,0.00,,,0.00,WeatherTracker,2013-04-16 07:10:00,
2013-04-16 02:15:00,68.8,66.1,30.06,SSE,152,0.0,0.0,91,0.00,,,0.00,WeatherTracker,2013-04-16 07:15:00,
2013-04-16 02:20:00,68.6,65.9,30.06,SSE,152,0.0,0.0,91,0.00,,,0.00,WeatherTracker,2013-04-16 07:20:00,
2013-04-16 02:30:00,68.4,65.7,30.06,SSE,152,0.0,0.0,91,0.00,,,0.00,WeatherTracker,2013-04-16 07:30:00,
2013-04-16 02:40:00,68.1,65.4,30.06,SSE,152,0.0,0.0,91,0.00,,,0.00,WeatherTracker,2013-04-16 07:40:00,
2013-04-16 02:50:00,67.9,65.2,30.06,SSE,152,0.0,0.0,91,0.00,,,0.00,WeatherTracker,2013-04-16 07:50:00,
2013-04-16 02:55:00,67.8,65.1,30.06,SSE,152,0.0,0.0,91,0.00,,,0.00,WeatherTracker,2013-04-16 07:55:00,
2013-04-16 03:05:00,67.5,64.8,30.06,SSE,152,0.0,0.0,91,0.00,,,0.00,WeatherTracker,2013-04-16 08:05:00,
2013-04-16 03:15:00,67.4,65.0,30.06,SSE,152,0.0,0.0,92,0.00,,,0.00,WeatherTracker,2013-04-16 08:15:00,
2013-04-16 03:20:00,67.3,64.9,30.06,SSE,152,0.0,0.0,92,0.00,,,0.00,WeatherTracker,2013-04-16 08:20:00,
2013-04-16 03:30:00,67.2,65.1,30.06,SSE,152,0.0,0.0,93,0.00,,,0.00,WeatherTracker,2013-04-16 08:30:00,
2013-04-16 03:40:00,67.0,64.9,30.07,SSE,152,0.0,0.0,93,0.00,,,0.00,WeatherTracker,2013-04-16 08:40:00,
2013-04-16 03:45:00,67.0,64.9,30.07,SSE,152,0.0,0.0,93,0.00,,,0.00,WeatherTracker,2013-04-16 08:45:00,
2013-04-16 03:55:00,66.9,64.8,30.07,SSE,152,0.0,0.0,93,0.00,,,0.00,WeatherTracker,2013-04-16 08:55:00,
2013-04-16 04:00:00,67.0,65.2,30.07,SSE,152,0.0,0.0,94,0.00,,,0.00,WeatherTracker,2013-04-16 09:00:00,
2013-04-16 04:10:00,67.2,65.4,30.06,SSE,152,0.0,0.0,94,0.00,,,0.00,WeatherTracker,2013-04-16 09:10:00,
2013-04-16 04:15:00,67.1,65.3,30.06,SSE,152,0.0,0.0,94,0.00,,,0.00,WeatherTracker,2013-04-16 09:15:00,
2013-04-16 04:20:00,67.1,65.3,30.06,SSE,150,0.0,1.0,94,0.00,,,0.00,WeatherTracker,2013-04-16 09:20:00,
2013-04-16 04:25:00,67.1,65.3,30.06,SSE,150,0.0,1.0,94,0.00,,,0.00,WeatherTracker,2013-04-16 09:25:00,
2013-04-16 04:30:00,67.3,65.8,30.07,ENE,78,0.0,4.0,95,0.00,,,0.00,WeatherTracker,2013-04-16 09:30:00,
2013-04-16 04:40:00,67.4,65.9,30.07,ENE,78,0.0,3.0,95,0.00,,,0.00,WeatherTracker,2013-04-16 09:40:00,
2013-04-16 04:50:00,67.4,65.9,30.07,ENE,78,0.0,2.0,95,0.00,,,0.00,WeatherTracker,2013-04-16 09:50:00,
2013-04-16 04:55:00,67.4,65.9,30.07,ENE,78,0.0,0.0,95,0.00,,,0.00,WeatherTracker,2013-04-16 09:55:00,
2013-04-16 05:00:00,67.3,65.8,30.07,ENE,78,0.0,1.0,95,0.00,,,0.00,WeatherTracker,2013-04-16 10:00:00,
2013-04-16 05:05:00,67.2,65.7,30.07,ENE,78,0.0,1.0,95,0.00,,,0.00,WeatherTracker,2013-04-16 10:05:00,
2013-04-16 05:15:00,67.1,65.6,30.07,ENE,78,0.0,2.0,95,0.00,,,0.00,WeatherTracker,2013-04-16 10:15:00,
2013-04-16 05:25:00,66.9,65.4,30.07,ENE,78,0.0,0.0,95,0.00,,,0.00,WeatherTracker,2013-04-16 10:25:00,
2013-04-16 05:30:00,66.8,65.3,30.07,ESE,103,1.0,6.0,95,0.00,,,0.00,WeatherTracker,2013-04-16 10:30:00,
2013-04-16 05:40:00,66.7,65.2,30.07,SE,135,0.0,5.0,95,0.00,,,0.00,WeatherTracker,2013-04-16 10:40:00,
2013-04-16 05:50:00,66.5,65.0,30.07,SE,138,0.0,6.0,95,0.00,,,0.00,WeatherTracker,2013-04-16 10:50:00,
2013-04-16 05:55:00,66.5,65.0,30.07,SSE,153,0.0,8.0,95,0.00,,,0.00,WeatherTracker,2013-04-16 10:55:00,
2013-04-16 06:00:00,66.5,65.0,30.07,SE,126,4.0,8.0,95,0.00,,,0.00,WeatherTracker,2013-04-16 11:00:00,
2013-04-16 06:05:00,66.5,65.0,30.07,East,92,0.0,8.0,95,0.00,,,0.00,WeatherTracker,2013-04-16 11:05:00,
2013-04-16 06:10:00,66.4,64.9,30.07,SE,134,1.0,7.0,95,0.00,,,0.00,WeatherTracker,2013-04-16 11:10:00,
2013-04-16 06:20:00,66.4,64.9,30.07,ESE,123,1.0,10.0,95,0.00,,,0.00,WeatherTracker,2013-04-16 11:20:00,
2013-04-16 06:30:00,66.4,64.9,30.08,SSE,160,2.0,7.0,95,0.00,,,0.00,WeatherTracker,2013-04-16 11:30:00,
2013-04-16 06:40:00,66.5,65.0,30.08,South,184,3.0,6.0,95,0.00,,,0.00,WeatherTracker,2013-04-16 11:40:00,
2013-04-16 06:45:00,66.5,65.0,30.09,South,182,1.0,6.0,95,0.00,,,0.00,WeatherTracker,2013-04-16 11:45:00,
2013-04-16 06:50:00,66.6,65.1,30.09,South,174,1.0,7.0,95,0.00,,,0.00,WeatherTracker,2013-04-16 11:50:00,
2013-04-16 06:55:00,66.7,65.2,30.09,ESE,120,2.0,7.0,95,0.00,,,0.00,WeatherTracker,2013-04-16 11:55:00,
2013-04-16 07:00:00,66.8,65.3,30.09,ENE,65,0.0,5.0,95,0.00,,,0.00,WeatherTracker,2013-04-16 12:00:00,
2013-04-16 07:05:00,66.9,65.4,30.10,SE,146,1.0,7.0,95,0.00,,,0.00,WeatherTracker,2013-04-16 12:05:00,
2013-04-16 07:15:00,67.0,65.5,30.11,SSE,153,0.0,4.0,95,0.00,,,0.00,WeatherTracker,2013-04-16 12:15:00,
2013-04-16 07:20:00,67.1,65.3,30.11,SE,142,1.0,5.0,94,0.00,,,0.00,WeatherTracker,2013-04-16 12:20:00,
2013-04-16 07:30:00,67.3,65.5,30.11,SE,128,2.0,5.0,94,0.00,,,0.00,WeatherTracker,2013-04-16 12:30:00,
2013-04-16 07:35:00,67.3,65.5,30.11,East,94,2.0,5.0,94,0.00,,,0.00,WeatherTracker,2013-04-16 12:35:00,
2013-04-16 07:45:00,67.5,65.7,30.11,SE,146,0.0,6.0,94,0.00,,,0.00,WeatherTracker,2013-04-16 12:45:00,
2013-04-16 07:55:00,67.8,65.7,30.11,SSE,158,0.0,6.0,93,0.00,,,0.00,WeatherTracker,2013-04-16 12:55:00,
2013-04-16 08:00:00,68.4,66.3,30.11,SSW,192,1.0,6.0,93,0.00,,,0.00,WeatherTracker,2013-04-16 13:00:00,
2013-04-16 08:10:00,69.4,66.7,30.11,East,93,0.0,7.0,91,0.00,,,0.00,WeatherTracker,2013-04-16 13:10:00,
2013-04-16 08:15:00,70.1,67.0,30.11,SSE,157,2.0,7.0,90,0.00,,,0.00,WeatherTracker,2013-04-16 13:15:00,
2013-04-16 08:25:00,70.9,66.8,30.12,ESE,123,5.0,8.0,87,0.00,,,0.00,WeatherTracker,2013-04-16 13:25:00,
2013-04-16 08:30:00,71.3,66.9,30.12,SE,138,5.0,9.0,86,0.00,,,0.00,WeatherTracker,2013-04-16 13:30:00,
2013-04-16 08:40:00,72.2,67.4,30.12,SE,146,0.0,9.0,85,0.00,,,0.00,WeatherTracker,2013-04-16 13:40:00,
2013-04-16 08:45:00,72.8,67.3,30.12,ESE,122,8.0,10.0,83,0.00,,,0.00,WeatherTracker,2013-04-16 13:45:00,
2013-04-16 08:55:00,73.3,67.1,30.11,SE,128,2.0,10.0,81,0.00,,,0.00,WeatherTracker,2013-04-16 13:55:00,
2013-04-16 09:00:00,73.5,67.3,30.12,ESE,108,9.0,9.0,81,0.00,,,0.00,WeatherTracker,2013-04-16 14:00:00,
2013-04-16 09:05:00,73.9,67.7,30.12,SE,138,5.0,9.0,81,0.00,,,0.00,WeatherTracker,2013-04-16 14:05:00,
2013-04-16 09:10:00,74.4,67.4,30.12,East,100,5.0,9.0,79,0.00,,,0.00,WeatherTracker,2013-04-16 14:10:00,
2013-04-16 09:20:00,74.9,67.6,30.12,SE,141,7.0,10.0,78,0.00,,,0.00,WeatherTracker,2013-04-16 14:20:00,
2013-04-16 09:25:00,75.1,67.8,30.12,SSE,168,0.0,10.0,78,0.00,,,0.00,WeatherTracker,2013-04-16 14:25:00,
2013-04-16 09:35:00,75.6,68.6,30.13,SE,126,0.0,7.0,79,0.00,,,0.00,WeatherTracker,2013-04-16 14:35:00,
2013-04-16 09:45:00,76.3,68.2,30.13,SE,141,7.0,11.0,76,0.00,,,0.00,WeatherTracker,2013-04-16 14:45:00,
2013-04-16 09:50:00,76.5,68.4,30.13,SE,138,7.0,11.0,76,0.00,,,0.00,WeatherTracker,2013-04-16 14:50:00,
2013-04-16 10:00:00,76.9,68.4,30.14,SE,142,0.0,9.0,75,0.00,,,0.00,WeatherTracker,2013-04-16 15:00:00,
2013-04-16 10:10:00,77.2,69.0,30.14,East,101,6.0,6.0,76,0.00,,,0.00,WeatherTracker,2013-04-16 15:10:00,
2013-04-16 10:15:00,77.4,68.4,30.14,ENE,67,2.0,9.0,74,0.00,,,0.00,WeatherTracker,2013-04-16 15:15:00,
2013-04-16 10:25:00,78.4,69.0,30.14,East,86,1.0,10.0,73,0.00,,,0.00,WeatherTracker,2013-04-16 15:25:00,
2013-04-16 10:30:00,78.4,69.0,30.14,East,80,1.0,10.0,73,0.00,,,0.00,WeatherTracker,2013-04-16 15:30:00,
2013-04-16 10:40:00,79.1,69.7,30.14,East,86,4.0,9.0,73,0.00,,,0.00,WeatherTracker,2013-04-16 15:40:00,
2013-04-16 10:45:00,79.5,69.3,30.14,East,96,1.0,9.0,71,0.00,,,0.00,WeatherTracker,2013-04-16 15:45:00,
2013-04-16 10:50:00,79.8,69.5,30.14,SE,126,2.0,9.0,71,0.00,,,0.00,WeatherTracker,2013-04-16 15:50:00,
2013-04-16 10:55:00,79.8,69.5,30.14,East,88,3.0,8.0,71,0.00,,,0.00,WeatherTracker,2013-04-16 15:55:00,
2013-04-16 11:05:00,80.5,69.4,30.14,ENE,65,2.0,11.0,69,0.00,,,0.00,WeatherTracker,2013-04-16 16:05:00,
2013-04-16 11:10:00,80.4,69.3,30.14,SSE,162,4.0,11.0,69,0.00,,,0.00,WeatherTracker,2013-04-16 16:10:00,
2013-04-16 11:15:00,81.0,69.4,30.14,SE,126,2.0,7.0,68,0.00,,,0.00,WeatherTracker,2013-04-16 16:15:00,
2013-04-16 11:25:00,81.4,70.7,30.14,East,83,4.0,8.0,70,0.00,,,0.00,WeatherTracker,2013-04-16 16:25:00,
2013-04-16 11:35:00,81.8,69.7,30.14,East,88,1.0,8.0,67,0.00,,,0.00,WeatherTracker,2013-04-16 16:35:00,
2013-04-16 11:45:00,82.3,70.2,30.14,NNE,32,3.0,9.0,67,0.00,,,0.00,WeatherTracker,2013-04-16 16:45:00,
2013-04-16 11:50:00,82.3,70.7,30.13,ESE,105,4.0,9.0,68,0.00,,,0.00,WeatherTracker,2013-04-16 16:50:00,
2013-04-16 12:00:00,82.9,70.8,30.13,SE,131,2.0,8.0,67,0.00,,,0.00,WeatherTracker,2013-04-16 17:00:00,
2013-04-16 12:10:00,82.7,70.2,30.13,SE,130,0.0,8.0,66,0.00,,,0.00,WeatherTracker,2013-04-16 17:10:00,
2013-04-16 12:20:00,83.6,70.6,30.12,SE,136,5.0,9.0,65,0.00,,,0.00,WeatherTracker,2013-04-16 17:20:00,
2013-04-16 12:25:00,84.0,70.9,30.12,SSE,162,5.0,9.0,65,0.00,,,0.00,WeatherTracker,2013-04-16 17:25:00,
2013-04-16 12:30:00,83.9,69.9,30.12,SSE,150,1.0,8.0,63,0.00,,,0.00,WeatherTracker,2013-04-16 17:30:00,
2013-04-16 12:35:00,84.1,71.5,30.12,ESE,117,0.0,8.0,66,0.00,,,0.00,WeatherTracker,2013-04-16 17:35:00,
2013-04-16 12:45:00,84.0,69.6,30.12,SE,140,7.0,9.0,62,0.00,,,0.00,WeatherTracker,2013-04-16 17:45:00,
2013-04-16 12:50:00,84.1,70.6,30.12,ENE,60,2.0,12.0,64,0.00,,,0.00,WeatherTracker,2013-04-16 17:50:00,
2013-04-16 13:00:00,84.9,71.3,30.12,SE,133,4.0,9.0,64,0.00,,,0.00,WeatherTracker,2013-04-16 18:00:00,
2013-04-16 13:05:00,84.9,70.4,30.12,SE,128,5.0,9.0,62,0.00,,,0.00,WeatherTracker,2013-04-16 18:05:00,
2013-04-16 13:10:00,84.7,70.7,30.11,East,86,1.0,10.0,63,0.00,,,0.00,WeatherTracker,2013-04-16 18:10:00,
2013-04-16 13:15:00,84.9,70.4,30.11,SE,138,6.0,10.0,62,0.00,,,0.00,WeatherTracker,2013-04-16 18:15:00,
2013-04-16 13:25:00,85.7,70.7,30.11,South,173,4.0,9.0,61,0.00,,,0.00,WeatherTracker,2013-04-16 18:25:00,
2013-04-16 13:30:00,85.6,70.6,30.11,South,175,2.0,9.0,61,0.00,,,0.00,WeatherTracker,2013-04-16 18:30:00,
2013-04-16 13:35:00,86.0,70.5,30.11,SE,135,8.0,11.0,60,0.00,,,0.00,WeatherTracker,2013-04-16 18:35:00,
2013-04-16 13:40:00,86.0,70.5,30.11,ESE,112,5.0,11.0,60,0.00,,,0.00,WeatherTracker,2013-04-16 18:40:00,
2013-04-16 13:50:00,86.5,70.4,30.11,SSE,160,4.0,9.0,59,0.00,,,0.00,WeatherTracker,2013-04-16 18:50:00,
2013-04-16 13:55:00,86.0,71.0,30.11,ESE,111,2.0,9.0,61,0.00,,,0.00,WeatherTracker,2013-04-16 18:55:00,
2013-04-16 14:00:00,85.9,69.9,30.11,South,173,4.0,9.0,59,0.00,,,0.00,WeatherTracker,2013-04-16 19:00:00,
2013-04-16 14:10:00,86.1,69.1,30.10,NE,51,7.0,12.0,57,0.00,,,0.00,WeatherTracker,2013-04-16 19:10:00,
2013-04-16 14:15:00,86.3,69.7,30.10,SSE,165,4.0,12.0,58,0.00,,,0.00,WeatherTracker,2013-04-16 19:15:00,
2013-04-16 14:20:00,86.3,69.7,30.10,SSW,200,6.0,9.0,58,0.00,,,0.00,WeatherTracker,2013-04-16 19:20:00,
2013-04-16 14:30:00,85.7,69.2,30.10,South,190,3.0,10.0,58,0.00,,,0.00,WeatherTracker,2013-04-16 19:30:00,
2013-04-16 14:35:00,86.0,69.0,30.10,South,178,9.0,12.0,57,0.00,,,0.00,WeatherTracker,2013-04-16 19:35:00,
2013-04-16 14:40:00,85.7,69.7,30.10,SSE,166,4.0,14.0,59,0.00,,,0.00,WeatherTracker,2013-04-16 19:40:00,
2013-04-16 14:50:00,85.1,69.6,30.10,SW,216,7.0,11.0,60,0.00,,,0.00,WeatherTracker,2013-04-16 19:50:00,
2013-04-16 15:00:00,84.9,68.4,30.09,SSE,148,2.0,12.0,58,0.00,,,0.00,WeatherTracker,2013-04-16 20:00:00,
2013-04-16 15:10:00,85.5,69.0,30.10,SSE,166,5.0,9.0,58,0.00,,,0.00,WeatherTracker,2013-04-16 20:10:00,
2013-04-16 15:20:00,85.5,69.5,30.09,ESE,123,0.0,9.0,59,0.00,,,0.00,WeatherTracker,2013-04-16 20:20:00,
2013-04-16 15:25:00,85.7,69.7,30.10,SE,138,4.0,11.0,59,0.00,,,0.00,WeatherTracker,2013-04-16 20:25:00,
2013-04-16 15:30:00,85.4,69.9,30.09,SSE,153,6.0,11.0,60,0.00,,,0.00,WeatherTracker,2013-04-16 20:30:00,
2013-04-16 15:35:00,85.3,69.8,30.09,South,175,0.0,7.0,60,0.00,,,0.00,WeatherTracker,2013-04-16 20:35:00,
2013-04-16 15:40:00,85.1,69.1,30.09,SSW,195,4.0,10.0,59,0.00,,,0.00,WeatherTracker,2013-04-16 20:40:00,
2013-04-16 15:50:00,85.2,69.7,30.09,SSW,209,3.0,8.0,60,0.00,,,0.00,WeatherTracker,2013-04-16 20:50:00,
2013-04-16 16:00:00,85.7,69.7,30.09,SE,130,5.0,7.0,59,0.00,,,0.00,WeatherTracker,2013-04-16 21:00:00,
2013-04-16 16:05:00,86.2,70.2,30.09,ESE,108,7.0,8.0,59,0.00,,,0.00,WeatherTracker,2013-04-16 21:05:00,
2013-04-16 16:15:00,85.8,69.3,30.08,SSE,153,2.0,9.0,58,0.00,,,0.00,WeatherTracker,2013-04-16 21:15:00,
2013-04-16 16:20:00,86.0,69.5,30.08,East,97,5.0,8.0,58,0.00,,,0.00,WeatherTracker,2013-04-16 21:20:00,
2013-04-16 16:25:00,86.2,70.2,30.08,South,173,5.0,8.0,59,0.00,,,0.00,WeatherTracker,2013-04-16 21:25:00,
2013-04-16 16:35:00,86.4,69.8,30.08,South,187,6.0,8.0,58,0.00,,,0.00,WeatherTracker,2013-04-16 21:35:00,
2013-04-16 16:40:00,86.2,69.1,30.08,East,90,4.0,10.0,57,0.00,,,0.00,WeatherTracker,2013-04-16 21:40:00,
2013-04-16 16:45:00,85.8,69.3,30.08,South,188,2.0,10.0,58,0.00,,,0.00,WeatherTracker,2013-04-16 21:45:00,
2013-04-16 16:50:00,85.9,69.9,30.08,SE,134,1.0,7.0,59,0.00,,,0.00,WeatherTracker,2013-04-16 21:50:00,
2013-04-16 16:55:00,86.1,69.6,30.08,East,90,2.0,7.0,58,0.00,,,0.00,WeatherTracker,2013-04-16 21:55:00,
2013-04-16 17:00:00,86.4,69.3,30.08,SSE,153,1.0,7.0,57,0.00,,,0.00,WeatherTracker,2013-04-16 22:00:00,
2013-04-16 17:05:00,86.3,68.7,30.08,SSE,155,1.0,9.0,56,0.00,,,0.00,WeatherTracker,2013-04-16 22:05:00,
2013-04-16 17:10:00,86.0,69.0,30.08,South,174,2.0,9.0,57,0.00,,,0.00,WeatherTracker,2013-04-16 22:10:00,
2013-04-16 17:20:00,85.4,68.4,30.08,SSW,192,6.0,8.0,57,0.00,,,0.00,WeatherTracker,2013-04-16 22:20:00,
2013-04-16 17:25:00,85.2,68.7,30.08,SSE,162,1.0,8.0,58,0.00,,,0.00,WeatherTracker,2013-04-16 22:25:00,
2013-04-16 17:35:00,85.1,69.6,30.08,East,90,4.0,6.0,60,0.00,,,0.00,WeatherTracker,2013-04-16 22:35:00,
2013-04-16 17:45:00,84.9,69.4,30.09,ESE,119,0.0,6.0,60,0.00,,,0.00,WeatherTracker,2013-04-16 22:45:00,
2013-04-16 17:50:00,84.5,69.1,30.09,North,355,0.0,5.0,60,0.00,,,0.00,WeatherTracker,2013-04-16 22:50:00,
2013-04-16 17:55:00,84.1,69.2,30.09,East,97,6.0,6.0,61,0.00,,,0.00,WeatherTracker,2013-04-16 22:55:00,
2013-04-16 18:05:00,83.4,69.0,30.09,ESE,109,0.0,6.0,62,0.00,,,0.00,WeatherTracker,2013-04-16 23:05:00,
2013-04-16 18:10:00,83.0,69.1,30.09,ESE,113,0.0,5.0,63,0.00,,,0.00,WeatherTracker,2013-04-16 23:10:00,
2013-04-16 18:15:00,82.8,68.9,30.09,SE,135,0.0,5.0,63,0.00,,,0.00,WeatherTracker,2013-04-16 23:15:00,
2013-04-16 18:20:00,82.6,69.2,30.09,SSW,202,3.0,4.0,64,0.00,,,0.00,WeatherTracker,2013-04-16 23:20:00,
2013-04-16 18:30:00,81.5,70.3,30.09,WSW,237,4.0,7.0,69,0.00,,,0.00,WeatherTracker,2013-04-16 23:30:00,
2013-04-16 18:35:00,81.0,70.3,30.09,WSW,248,4.0,7.0,70,0.00,,,0.00,WeatherTracker,2013-04-16 23:35:00,
2013-04-16 18:45:00,80.6,69.9,30.09,SSW,210,0.0,5.0,70,0.00,,,0.00,WeatherTracker,2013-04-16 23:45:00,
2013-04-16 18:50:00,80.5,69.8,30.09,SSW,210,0.0,2.0,70,0.00,,,0.00,WeatherTracker,2013-04-16 23:50:00,
2013-04-16 19:00:00,80.4,70.5,30.09,SSW,210,0.0,0.0,72,0.00,,,0.00,WeatherTracker,2013-04-17 00:00:00,
2013-04-16 19:10:00,80.2,70.7,30.10,SSW,210,0.0,0.0,73,0.00,,,0.00,WeatherTracker,2013-04-17 00:10:00,
2013-04-16 19:15:00,80.1,71.0,30.10,SSW,210,0.0,0.0,74,0.00,,,0.00,WeatherTracker,2013-04-17 00:15:00,
2013-04-16 19:20:00,79.8,70.8,30.10,SSW,210,0.0,0.0,74,0.00,,,0.00,WeatherTracker,2013-04-17 00:20:00,
2013-04-16 19:30:00,79.3,70.7,30.10,SSW,210,0.0,0.0,75,0.00,,,0.00,WeatherTracker,2013-04-17 00:30:00,
2013-04-16 19:40:00,78.8,70.6,30.10,SSW,210,0.0,0.0,76,0.00,,,0.00,WeatherTracker,2013-04-17 00:40:00,
2013-04-16 19:45:00,78.6,70.0,30.10,SSW,209,0.0,0.0,75,0.00,,,0.00,WeatherTracker,2013-04-17 00:45:00,
2013-04-16 19:55:00,78.0,69.4,30.10,SSW,209,0.0,0.0,75,0.00,,,0.00,WeatherTracker,2013-04-17 00:55:00,
2013-04-16 20:00:00,77.8,69.6,30.10,SSW,209,0.0,0.0,76,0.00,,,0.00,WeatherTracker,2013-04-17 01:00:00,
2013-04-16 20:10:00,77.5,69.7,30.10,SSW,209,2.0,3.0,77,0.00,,,0.00,WeatherTracker,2013-04-17 01:10:00,
2013-04-16 20:20:00,77.0,69.6,30.11,SSW,209,0.0,2.0,78,0.00,,,0.00,WeatherTracker,2013-04-17 01:20:00,
2013-04-16 20:25:00,76.9,69.9,30.11,SSW,207,0.0,0.0,79,0.00,,,0.00,WeatherTracker,2013-04-17 01:25:00,
2013-04-16 20:30:00,76.6,69.6,30.11,SSW,194,3.0,4.0,79,0.00,,,0.00,WeatherTracker,2013-04-17 01:30:00,
2013-04-16 20:40:00,76.2,69.6,30.11,South,173,0.0,5.0,80,0.00,,,0.00,WeatherTracker,2013-04-17 01:40:00,
2013-04-16 20:50:00,75.8,69.5,30.11,South,173,0.0,0.0,81,0.00,,,0.00,WeatherTracker,2013-04-17 01:50:00,
2013-04-16 20:55:00,75.7,69.4,30.11,South,173,0.0,0.0,81,0.00,,,0.00,WeatherTracker,2013-04-17 01:55:00,
2013-04-16 21:05:00,75.3,69.4,30.12,South,173,0.0,0.0,82,0.00,,,0.00,WeatherTracker,2013-04-17 02:05:00,
2013-04-16 21:15:00,75.0,69.5,30.12,South,173,0.0,0.0,83,0.00,,,0.00,WeatherTracker,2013-04-17 02:15:00,
2013-04-16 21:25:00,74.7,69.2,30.12,South,173,0.0,0.0,83,0.00,,,0.00,WeatherTracker,2013-04-17 02:25:00,
2013-04-16 21:30:00,74.5,69.0,30.12,South,173,0.0,0.0,83,0.00,,,0.00,WeatherTracker,2013-04-17 02:30:00,
2013-04-16 21:35:00,74.3,68.8,30.12,South,173,0.0,0.0,83,0.00,,,0.00,WeatherTracker,2013-04-17 02:35:00,
2013-04-16 21:45:00,73.8,68.7,30.12,South,173,0.0,0.0,84,0.00,,,0.00,WeatherTracker,2013-04-17 02:45:00,
2013-04-16 21:50:00,73.6,68.8,30.12,South,173,0.0,0.0,85,0.00,,,0.00,WeatherTracker,2013-04-17 02:50:00,
2013-04-16 21:55:00,73.4,68.6,30.12,South,173,0.0,0.0,85,0.00,,,0.00,WeatherTracker,2013-04-17 02:55:00,
2013-04-16 22:00:00,73.1,68.3,30.12,South,173,0.0,0.0,85,0.00,,,0.00,WeatherTracker,2013-04-17 03:00:00,
2013-04-16 22:05:00,72.9,68.1,30.12,South,173,0.0,0.0,85,0.00,,,0.00,WeatherTracker,2013-04-17 03:05:00,
2013-04-16 22:15:00,72.4,68.3,30.12,South,173,0.0,0.0,87,0.00,,,0.00,WeatherTracker,2013-04-17 03:15:00,
2013-04-16 22:25:00,72.0,68.2,30.12,South,173,0.0,0.0,88,0.00,,,0.00,WeatherTracker,2013-04-17 03:25:00,
2013-04-16 22:30:00,71.9,68.1,30.12,South,173,0.0,0.0,88,0.00,,,0.00,WeatherTracker,2013-04-17 03:30:00,
2013-04-16 22:35:00,71.8,68.4,30.12,South,173,0.0,0.0,89,0.00,,,0.00,WeatherTracker,2013-04-17 03:35:00,
2013-04-16 22:45:00,71.8,68.4,30.12,South,173,0.0,4.0,89,0.00,,,0.00,WeatherTracker,2013-04-17 03:45:00,
2013-04-16 22:50:00,71.8,68.4,30.12,South,173,1.0,2.0,89,0.00,,,0.00,WeatherTracker,2013-04-17 03:50:00,
2013-04-16 23:00:00,71.5,68.1,30.12,South,173,0.0,1.0,89,0.00,,,0.00,WeatherTracker,2013-04-17 04:00:00,
2013-04-16 23:05:00,71.5,68.1,30.12,South,173,0.0,1.0,89,0.00,,,0.00,WeatherTracker,2013-04-17 04:05:00,
2013-04-16 23:15:00,71.2,67.8,30.12,South,173,0.0,0.0,89,0.00,,,0.00,WeatherTracker,2013-04-17 04:15:00,
2013-04-16 23:20:00,71.1,67.7,30.12,South,173,0.0,0.0,89,0.00,,,0.00,WeatherTracker,2013-04-17 04:20:00,
2013-04-16 23:25:00,70.9,67.5,30.12,South,173,0.0,0.0,89,0.00,,,0.00,WeatherTracker,2013-04-17 04:25:00,
2013-04-16 23:30:00,70.8,67.4,30.12,South,173,0.0,0.0,89,0.00,,,0.00,WeatherTracker,2013-04-17 04:30:00,
2013-04-16 23:35:00,70.6,67.2,30.12,South,173,0.0,0.0,89,0.00,,,0.00,WeatherTracker,2013-04-17 04:35:00,
2013-04-16 23:40:00,70.5,67.1,30.12,South,173,0.0,0.0,89,0.00,,,0.00,WeatherTracker,2013-04-17 04:40:00,
2013-04-16 23:45:00,70.4,67.3,30.12,South,173,0.0,0.0,90,0.00,,,0.00,WeatherTracker,2013-04-17 04:45:00,
2013-04-16 23:50:00,70.3,67.2,30.12,South,173,0.0,0.0,90,0.00,,,0.00,WeatherTracker,2013-04-17 04:50:00,